sensor_id;sensor_type;location;lat;lon;timestamp;temperature;humidity
14008;DHT22;61651;45.508;12.232;2023-11-21T00:02:41;12.40;99.90
14008;DHT22;61651;45.508;12.232;2023-11-21T00:05:43;12.40;99.90
14008;DHT22;61651;45.508;12.232;2023-11-21T00:08:46;12.40;99.90
14008;DHT22;61651;45.508;12.232;2023-11-21T00:11:48;12.40;99.90
14008;DHT22;61651;45.508;12.232;2023-11-21T00:14:50;12.50;99.90
14008;DHT22;61651;45.508;12.232;2023-11-21T00:17:53;12.50;99.90
14008;DHT22;61651;45.508;12.232;2023-11-21T00:20:55;12.50;99.90
14008;DHT22;61651;45.508;12.232;2023-11-21T00:23:59;12.50;99.90
14008;DHT22;61651;45.508;12.232;2023-11-21T00:27:01;12.50;99.90
14008;DHT22;61651;45.508;12.232;2023-11-21T00:30:04;12.50;99.90
14008;DHT22;61651;45.508;12.232;2023-11-21T00:33:08;12.40;99.90
14008;DHT22;61651;45.508;12.232;2023-11-21T00:36:10;12.40;99.90
14008;DHT22;61651;45.508;12.232;2023-11-21T00:39:12;12.40;99.90
14008;DHT22;61651;45.508;12.232;2023-11-21T00:42:14;12.40;99.90
14008;DHT22;61651;45.508;12.232;2023-11-21T00:45:16;12.40;99.90
14008;DHT22;61651;45.508;12.232;2023-11-21T00:48:20;12.40;99.90
14008;DHT22;61651;45.508;12.232;2023-11-21T00:51:22;12.40;99.90
14008;DHT22;61651;45.508;12.232;2023-11-21T00:54:25;12.40;99.90
14008;DHT22;61651;45.508;12.232;2023-11-21T00:57:27;12.20;99.90
14008;DHT22;61651;45.508;12.232;2023-11-21T01:00:29;12.20;99.90
14008;DHT22;61651;45.508;12.232;2023-11-21T01:03:32;12.00;99.90
14008;DHT22;61651;45.508;12.232;2023-11-21T01:06:34;11.70;99.90
14008;DHT22;61651;45.508;12.232;2023-11-21T01:09:36;11.90;99.90
14008;DHT22;61651;45.508;12.232;2023-11-21T01:12:38;12.00;99.90
14008;DHT22;61651;45.508;12.232;2023-11-21T01:15:40;12.10;99.90
14008;DHT22;61651;45.508;12.232;2023-11-21T01:18:44;12.20;99.90
14008;DHT22;61651;45.508;12.232;2023-11-21T01:21:46;12.30;99.90
14008;DHT22;61651;45.508;12.232;2023-11-21T01:24:48;12.20;99.90
14008;DHT22;61651;45.508;12.232;2023-11-21T01:27:50;12.20;99.90
14008;DHT22;61651;45.508;12.232;2023-11-21T01:30:52;11.80;99.90
14008;DHT22;61651;45.508;12.232;2023-11-21T01:33:58;11.80;99.90
14008;DHT22;61651;45.508;12.232;2023-11-21T01:37:00;11.90;99.90
14008;DHT22;61651;45.508;12.232;2023-11-21T01:40:06;12.00;99.90
14008;DHT22;61651;45.508;12.232;2023-11-21T01:43:11;11.70;99.90
14008;DHT22;61651;45.508;12.232;2023-11-21T01:46:13;11.50;99.90
14008;DHT22;61651;45.508;12.232;2023-11-21T01:49:17;11.40;99.90
14008;DHT22;61651;45.508;12.232;2023-11-21T01:52:21;11.30;99.90
14008;DHT22;61651;45.508;12.232;2023-11-21T01:55:23;11.30;99.90
14008;DHT22;61651;45.508;12.232;2023-11-21T01:58:25;11.50;99.90
14008;DHT22;61651;45.508;12.232;2023-11-21T02:01:27;11.40;99.90
14008;DHT22;61651;45.508;12.232;2023-11-21T02:04:31;11.50;99.90
14008;DHT22;61651;45.508;12.232;2023-11-21T02:07:33;11.70;99.90
14008;DHT22;61651;45.508;12.232;2023-11-21T02:10:35;11.80;99.90
14008;DHT22;61651;45.508;12.232;2023-11-21T02:13:38;11.90;99.90
14008;DHT22;61651;45.508;12.232;2023-11-21T02:16:42;12.00;99.90
14008;DHT22;61651;45.508;12.232;2023-11-21T02:19:48;12.00;99.90
14008;DHT22;61651;45.508;12.232;2023-11-21T02:22:54;12.00;99.90
14008;DHT22;61651;45.508;12.232;2023-11-21T02:25:58;12.00;99.90
14008;DHT22;61651;45.508;12.232;2023-11-21T02:29:04;11.90;99.90
14008;DHT22;61651;45.508;12.232;2023-11-21T02:32:06;11.90;99.90
14008;DHT22;61651;45.508;12.232;2023-11-21T02:35:11;11.90;99.90
14008;DHT22;61651;45.508;12.232;2023-11-21T02:38:15;11.90;99.90
14008;DHT22;61651;45.508;12.232;2023-11-21T02:41:17;11.90;99.90
14008;DHT22;61651;45.508;12.232;2023-11-21T02:44:19;11.80;99.90
14008;DHT22;61651;45.508;12.232;2023-11-21T02:47:21;11.60;99.90
14008;DHT22;61651;45.508;12.232;2023-11-21T02:50:24;11.30;99.90
14008;DHT22;61651;45.508;12.232;2023-11-21T02:53:27;10.80;99.90
14008;DHT22;61651;45.508;12.232;2023-11-21T02:56:29;10.70;99.90
14008;DHT22;61651;45.508;12.232;2023-11-21T02:59:31;10.80;99.90
14008;DHT22;61651;45.508;12.232;2023-11-21T03:02:33;11.00;99.90
14008;DHT22;61651;45.508;12.232;2023-11-21T03:05:37;11.30;99.90
14008;DHT22;61651;45.508;12.232;2023-11-21T03:08:40;11.30;99.90
14008;DHT22;61651;45.508;12.232;2023-11-21T03:11:42;11.40;99.90
14008;DHT22;61651;45.508;12.232;2023-11-21T03:14:44;11.50;99.90
14008;DHT22;61651;45.508;12.232;2023-11-21T03:17:46;11.60;99.90
14008;DHT22;61651;45.508;12.232;2023-11-21T03:20:51;11.70;99.90
14008;DHT22;61651;45.508;12.232;2023-11-21T03:23:55;11.80;99.90
14008;DHT22;61651;45.508;12.232;2023-11-21T03:26:57;11.70;99.90
14008;DHT22;61651;45.508;12.232;2023-11-21T03:29:59;11.80;99.90
14008;DHT22;61651;45.508;12.232;2023-11-21T03:33:01;11.80;99.90
14008;DHT22;61651;45.508;12.232;2023-11-21T03:36:04;11.70;99.90
14008;DHT22;61651;45.508;12.232;2023-11-21T03:39:07;11.70;99.90
14008;DHT22;61651;45.508;12.232;2023-11-21T03:42:09;11.60;99.90
14008;DHT22;61651;45.508;12.232;2023-11-21T03:45:11;11.60;99.90
14008;DHT22;61651;45.508;12.232;2023-11-21T03:48:14;11.60;99.90
14008;DHT22;61651;45.508;12.232;2023-11-21T03:51:16;11.60;99.90
14008;DHT22;61651;45.508;12.232;2023-11-21T03:54:20;11.60;99.90
14008;DHT22;61651;45.508;12.232;2023-11-21T03:57:22;11.60;99.90
14008;DHT22;61651;45.508;12.232;2023-11-21T04:00:24;11.60;99.90
14008;DHT22;61651;45.508;12.232;2023-11-21T04:03:27;11.50;99.90
14008;DHT22;61651;45.508;12.232;2023-11-21T04:06:29;11.50;99.90
14008;DHT22;61651;45.508;12.232;2023-11-21T04:09:34;11.50;99.90
14008;DHT22;61651;45.508;12.232;2023-11-21T04:12:37;11.50;99.90
14008;DHT22;61651;45.508;12.232;2023-11-21T04:15:39;11.40;99.90
14008;DHT22;61651;45.508;12.232;2023-11-21T04:18:41;11.30;99.90
14008;DHT22;61651;45.508;12.232;2023-11-21T04:21:43;11.20;99.90
14008;DHT22;61651;45.508;12.232;2023-11-21T04:24:47;11.20;99.90
14008;DHT22;61651;45.508;12.232;2023-11-21T04:27:50;11.20;99.90
14008;DHT22;61651;45.508;12.232;2023-11-21T04:30:52;11.20;99.90
14008;DHT22;61651;45.508;12.232;2023-11-21T04:33:54;11.30;99.90
14008;DHT22;61651;45.508;12.232;2023-11-21T04:36:56;11.30;99.90
14008;DHT22;61651;45.508;12.232;2023-11-21T04:39:59;11.30;99.90
14008;DHT22;61651;45.508;12.232;2023-11-21T04:43:01;11.40;99.90
14008;DHT22;61651;45.508;12.232;2023-11-21T04:46:05;11.40;99.90
14008;DHT22;61651;45.508;12.232;2023-11-21T04:49:07;11.50;99.90
14008;DHT22;61651;45.508;12.232;2023-11-21T04:52:09;11.40;99.90
14008;DHT22;61651;45.508;12.232;2023-11-21T04:55:13;11.40;99.90
14008;DHT22;61651;45.508;12.232;2023-11-21T04:58:16;11.40;99.90
14008;DHT22;61651;45.508;12.232;2023-11-21T05:01:18;11.40;99.90
14008;DHT22;61651;45.508;12.232;2023-11-21T05:04:20;11.40;99.90
14008;DHT22;61651;45.508;12.232;2023-11-21T05:07:22;11.40;99.90
14008;DHT22;61651;45.508;12.232;2023-11-21T05:10:26;11.40;99.90
14008;DHT22;61651;45.508;12.232;2023-11-21T05:13:28;11.20;99.90
14008;DHT22;61651;45.508;12.232;2023-11-21T05:16:30;11.00;99.90
14008;DHT22;61651;45.508;12.232;2023-11-21T05:19:32;10.80;99.90
14008;DHT22;61651;45.508;12.232;2023-11-21T05:22:35;10.70;99.90
14008;DHT22;61651;45.508;12.232;2023-11-21T05:25:38;10.60;99.90
14008;DHT22;61651;45.508;12.232;2023-11-21T05:28:41;10.70;99.90
14008;DHT22;61651;45.508;12.232;2023-11-21T05:31:43;10.90;99.90
14008;DHT22;61651;45.508;12.232;2023-11-21T05:34:45;11.00;99.90
14008;DHT22;61651;45.508;12.232;2023-11-21T05:37:47;11.10;99.90
14008;DHT22;61651;45.508;12.232;2023-11-21T05:40:51;11.10;99.90
14008;DHT22;61651;45.508;12.232;2023-11-21T05:43:53;11.10;99.90
14008;DHT22;61651;45.508;12.232;2023-11-21T05:46:55;11.10;99.90
14008;DHT22;61651;45.508;12.232;2023-11-21T05:49:58;11.10;99.90
14008;DHT22;61651;45.508;12.232;2023-11-21T05:53:00;10.80;99.90
14008;DHT22;61651;45.508;12.232;2023-11-21T05:56:05;10.60;99.90
14008;DHT22;61651;45.508;12.232;2023-11-21T05:59:08;10.70;99.90
14008;DHT22;61651;45.508;12.232;2023-11-21T06:02:10;10.80;99.90
14008;DHT22;61651;45.508;12.232;2023-11-21T06:05:13;10.90;99.90
14008;DHT22;61651;45.508;12.232;2023-11-21T06:08:15;10.90;99.90
14008;DHT22;61651;45.508;12.232;2023-11-21T06:11:18;10.70;99.90
14008;DHT22;61651;45.508;12.232;2023-11-21T06:14:20;10.50;99.90
14008;DHT22;61651;45.508;12.232;2023-11-21T06:17:23;10.60;99.90
14008;DHT22;61651;45.508;12.232;2023-11-21T06:20:25;10.40;99.90
14008;DHT22;61651;45.508;12.232;2023-11-21T06:23:28;10.00;99.90
14008;DHT22;61651;45.508;12.232;2023-11-21T06:26:31;9.70;99.90
14008;DHT22;61651;45.508;12.232;2023-11-21T06:29:33;9.50;99.90
14008;DHT22;61651;45.508;12.232;2023-11-21T06:32:35;9.40;99.90
14008;DHT22;61651;45.508;12.232;2023-11-21T06:35:37;9.70;99.90
14008;DHT22;61651;45.508;12.232;2023-11-21T06:38:40;10.00;99.90
14008;DHT22;61651;45.508;12.232;2023-11-21T06:41:43;10.00;99.90
14008;DHT22;61651;45.508;12.232;2023-11-21T06:44:45;10.10;99.90
14008;DHT22;61651;45.508;12.232;2023-11-21T06:47:48;10.10;99.90
14008;DHT22;61651;45.508;12.232;2023-11-21T06:50:50;9.90;99.90
14008;DHT22;61651;45.508;12.232;2023-11-21T06:53:53;9.90;99.90
14008;DHT22;61651;45.508;12.232;2023-11-21T06:56:56;10.10;99.90
14008;DHT22;61651;45.508;12.232;2023-11-21T06:59:58;10.20;99.90
14008;DHT22;61651;45.508;12.232;2023-11-21T07:03:00;10.30;99.90
14008;DHT22;61651;45.508;12.232;2023-11-21T07:06:03;9.90;99.90
14008;DHT22;61651;45.508;12.232;2023-11-21T07:09:05;9.80;99.90
14008;DHT22;61651;45.508;12.232;2023-11-21T07:12:10;10.00;99.90
14008;DHT22;61651;45.508;12.232;2023-11-21T07:15:12;10.10;99.90
14008;DHT22;61651;45.508;12.232;2023-11-21T07:18:14;9.80;99.90
14008;DHT22;61651;45.508;12.232;2023-11-21T07:21:16;9.90;99.90
14008;DHT22;61651;45.508;12.232;2023-11-21T07:24:18;10.10;99.90
14008;DHT22;61651;45.508;12.232;2023-11-21T07:27:22;10.40;99.90
14008;DHT22;61651;45.508;12.232;2023-11-21T07:30:24;10.60;99.90
14008;DHT22;61651;45.508;12.232;2023-11-21T07:33:26;10.80;99.90
14008;DHT22;61651;45.508;12.232;2023-11-21T07:36:28;11.00;99.90
14008;DHT22;61651;45.508;12.232;2023-11-21T07:39:30;11.10;99.90
14008;DHT22;61651;45.508;12.232;2023-11-21T07:42:34;11.10;99.90
14008;DHT22;61651;45.508;12.232;2023-11-21T07:45:36;11.20;99.90
14008;DHT22;61651;45.508;12.232;2023-11-21T07:48:38;11.30;99.90
14008;DHT22;61651;45.508;12.232;2023-11-21T07:51:41;11.40;99.90
14008;DHT22;61651;45.508;12.232;2023-11-21T07:54:44;11.50;99.90
14008;DHT22;61651;45.508;12.232;2023-11-21T07:57:47;11.50;99.90
14008;DHT22;61651;45.508;12.232;2023-11-21T08:00:49;11.40;99.90
14008;DHT22;61651;45.508;12.232;2023-11-21T08:03:51;11.40;99.90
14008;DHT22;61651;45.508;12.232;2023-11-21T08:06:57;11.50;99.90
14008;DHT22;61651;45.508;12.232;2023-11-21T08:09:59;11.60;99.90
14008;DHT22;61651;45.508;12.232;2023-11-21T08:13:02;11.70;99.90
14008;DHT22;61651;45.508;12.232;2023-11-21T08:16:05;11.70;99.90
14008;DHT22;61651;45.508;12.232;2023-11-21T08:19:08;11.60;99.90
14008;DHT22;61651;45.508;12.232;2023-11-21T08:22:10;11.70;99.90
14008;DHT22;61651;45.508;12.232;2023-11-21T08:25:12;11.50;99.90
14008;DHT22;61651;45.508;12.232;2023-11-21T08:28:15;11.50;99.90
14008;DHT22;61651;45.508;12.232;2023-11-21T08:31:23;11.70;99.90
14008;DHT22;61651;45.508;12.232;2023-11-21T08:34:24;11.80;99.90
14008;DHT22;61651;45.508;12.232;2023-11-21T08:37:26;11.90;99.90
14008;DHT22;61651;45.508;12.232;2023-11-21T08:40:30;11.90;99.90
14008;DHT22;61651;45.508;12.232;2023-11-21T08:43:35;11.80;99.90
14008;DHT22;61651;45.508;12.232;2023-11-21T08:46:40;11.80;99.90
14008;DHT22;61651;45.508;12.232;2023-11-21T08:49:42;11.90;99.90
14008;DHT22;61651;45.508;12.232;2023-11-21T08:52:45;11.90;99.90
14008;DHT22;61651;45.508;12.232;2023-11-21T08:55:47;12.00;99.90
14008;DHT22;61651;45.508;12.232;2023-11-21T08:58:52;12.10;99.90
14008;DHT22;61651;45.508;12.232;2023-11-21T09:01:54;12.20;99.90
14008;DHT22;61651;45.508;12.232;2023-11-21T09:04:56;12.30;99.90
14008;DHT22;61651;45.508;12.232;2023-11-21T09:07:59;12.30;99.90
14008;DHT22;61651;45.508;12.232;2023-11-21T09:11:01;12.30;99.90
14008;DHT22;61651;45.508;12.232;2023-11-21T09:14:05;12.40;99.90
14008;DHT22;61651;45.508;12.232;2023-11-21T09:17:07;12.50;99.90
14008;DHT22;61651;45.508;12.232;2023-11-21T09:20:12;12.50;99.90
14008;DHT22;61651;45.508;12.232;2023-11-21T09:23:15;12.60;99.90
14008;DHT22;61651;45.508;12.232;2023-11-21T09:26:17;12.60;99.90
14008;DHT22;61651;45.508;12.232;2023-11-21T09:29:21;12.70;99.90
14008;DHT22;61651;45.508;12.232;2023-11-21T09:32:23;12.60;99.90
14008;DHT22;61651;45.508;12.232;2023-11-21T09:35:25;12.60;99.90
14008;DHT22;61651;45.508;12.232;2023-11-21T09:38:28;12.80;99.90
14008;DHT22;61651;45.508;12.232;2023-11-21T09:41:43;12.80;99.90
14008;DHT22;61651;45.508;12.232;2023-11-21T09:44:51;12.80;99.90
14008;DHT22;61651;45.508;12.232;2023-11-21T09:47:56;12.80;99.90
14008;DHT22;61651;45.508;12.232;2023-11-21T09:51:00;12.70;99.90
14008;DHT22;61651;45.508;12.232;2023-11-21T09:54:05;12.70;99.90
14008;DHT22;61651;45.508;12.232;2023-11-21T09:57:09;12.80;99.90
14008;DHT22;61651;45.508;12.232;2023-11-21T10:00:14;12.90;99.90
14008;DHT22;61651;45.508;12.232;2023-11-21T10:03:18;12.90;99.90
14008;DHT22;61651;45.508;12.232;2023-11-21T10:06:21;12.90;99.90
14008;DHT22;61651;45.508;12.232;2023-11-21T10:09:24;12.60;99.90
14008;DHT22;61651;45.508;12.232;2023-11-21T10:12:28;12.30;99.90
14008;DHT22;61651;45.508;12.232;2023-11-21T10:15:33;12.20;99.90
14008;DHT22;61651;45.508;12.232;2023-11-21T10:18:36;12.20;99.90
14008;DHT22;61651;45.508;12.232;2023-11-21T10:21:40;12.30;99.90
14008;DHT22;61651;45.508;12.232;2023-11-21T10:24:42;12.60;99.90
14008;DHT22;61651;45.508;12.232;2023-11-21T10:27:47;12.80;99.90
14008;DHT22;61651;45.508;12.232;2023-11-21T10:30:53;13.00;99.90
14008;DHT22;61651;45.508;12.232;2023-11-21T10:33:56;13.10;99.90
14008;DHT22;61651;45.508;12.232;2023-11-21T10:37:11;13.20;99.90
14008;DHT22;61651;45.508;12.232;2023-11-21T10:40:13;13.30;99.90
14008;DHT22;61651;45.508;12.232;2023-11-21T10:43:15;13.40;99.90
14008;DHT22;61651;45.508;12.232;2023-11-21T10:46:19;13.40;99.90
14008;DHT22;61651;45.508;12.232;2023-11-21T10:49:21;13.40;99.90
14008;DHT22;61651;45.508;12.232;2023-11-21T10:52:27;13.40;99.90
14008;DHT22;61651;45.508;12.232;2023-11-21T10:55:30;13.50;99.90
14008;DHT22;61651;45.508;12.232;2023-11-21T10:58:33;13.50;99.90
14008;DHT22;61651;45.508;12.232;2023-11-21T11:01:38;13.60;99.90
14008;DHT22;61651;45.508;12.232;2023-11-21T11:04:40;13.70;99.90
14008;DHT22;61651;45.508;12.232;2023-11-21T11:07:43;13.80;99.90
14008;DHT22;61651;45.508;12.232;2023-11-21T11:10:46;13.90;99.90
14008;DHT22;61651;45.508;12.232;2023-11-21T11:13:48;14.00;99.90
14008;DHT22;61651;45.508;12.232;2023-11-21T11:16:54;14.10;99.90
14008;DHT22;61651;45.508;12.232;2023-11-21T11:19:56;14.10;99.90
14008;DHT22;61651;45.508;12.232;2023-11-21T11:23:09;14.10;99.90
14008;DHT22;61651;45.508;12.232;2023-11-21T11:26:21;14.10;99.90
14008;DHT22;61651;45.508;12.232;2023-11-21T11:29:34;14.20;99.90
14008;DHT22;61651;45.508;12.232;2023-11-21T11:32:47;14.20;99.90
14008;DHT22;61651;45.508;12.232;2023-11-21T11:36:00;14.30;99.90
14008;DHT22;61651;45.508;12.232;2023-11-21T11:39:26;14.30;99.90
14008;DHT22;61651;45.508;12.232;2023-11-21T11:42:29;14.40;99.90
14008;DHT22;61651;45.508;12.232;2023-11-21T11:45:32;14.50;99.90
14008;DHT22;61651;45.508;12.232;2023-11-21T11:48:39;14.50;99.90
14008;DHT22;61651;45.508;12.232;2023-11-21T11:51:42;14.60;99.90
14008;DHT22;61651;45.508;12.232;2023-11-21T11:54:44;14.60;99.90
14008;DHT22;61651;45.508;12.232;2023-11-21T11:57:47;14.70;99.90
14008;DHT22;61651;45.508;12.232;2023-11-21T12:00:51;14.80;99.90
14008;DHT22;61651;45.508;12.232;2023-11-21T12:04:24;14.90;99.90
14008;DHT22;61651;45.508;12.232;2023-11-21T12:07:46;15.00;99.90
14008;DHT22;61651;45.508;12.232;2023-11-21T12:10:48;15.10;99.90
14008;DHT22;61651;45.508;12.232;2023-11-21T12:13:53;15.10;99.90
14008;DHT22;61651;45.508;12.232;2023-11-21T12:16:55;15.20;99.90
14008;DHT22;61651;45.508;12.232;2023-11-21T12:20:03;15.30;99.90
14008;DHT22;61651;45.508;12.232;2023-11-21T12:23:06;15.30;99.90
14008;DHT22;61651;45.508;12.232;2023-11-21T12:26:09;15.40;99.90
14008;DHT22;61651;45.508;12.232;2023-11-21T12:29:11;15.30;99.90
14008;DHT22;61651;45.508;12.232;2023-11-21T12:32:14;15.40;99.90
14008;DHT22;61651;45.508;12.232;2023-11-21T12:35:21;15.40;99.90
14008;DHT22;61651;45.508;12.232;2023-11-21T12:38:23;15.40;99.90
14008;DHT22;61651;45.508;12.232;2023-11-21T12:41:25;15.50;99.90
14008;DHT22;61651;45.508;12.232;2023-11-21T12:44:27;15.40;99.90
14008;DHT22;61651;45.508;12.232;2023-11-21T12:47:29;15.40;99.90
14008;DHT22;61651;45.508;12.232;2023-11-21T12:50:34;15.30;99.90
14008;DHT22;61651;45.508;12.232;2023-11-21T12:53:38;15.30;99.90
14008;DHT22;61651;45.508;12.232;2023-11-21T12:56:41;15.30;99.90
14008;DHT22;61651;45.508;12.232;2023-11-21T12:59:45;15.30;99.90
14008;DHT22;61651;45.508;12.232;2023-11-21T13:02:47;15.30;99.90
14008;DHT22;61651;45.508;12.232;2023-11-21T13:05:53;15.20;99.90
14008;DHT22;61651;45.508;12.232;2023-11-21T13:08:57;15.20;99.90
14008;DHT22;61651;45.508;12.232;2023-11-21T13:12:01;15.20;99.90
14008;DHT22;61651;45.508;12.232;2023-11-21T13:15:05;15.20;99.90
14008;DHT22;61651;45.508;12.232;2023-11-21T13:18:09;15.20;99.90
14008;DHT22;61651;45.508;12.232;2023-11-21T13:21:13;15.20;99.90
14008;DHT22;61651;45.508;12.232;2023-11-21T13:24:16;15.20;99.90
14008;DHT22;61651;45.508;12.232;2023-11-21T13:27:18;15.10;99.90
14008;DHT22;61651;45.508;12.232;2023-11-21T13:30:21;15.10;99.90
14008;DHT22;61651;45.508;12.232;2023-11-21T13:33:27;15.10;99.90
14008;DHT22;61651;45.508;12.232;2023-11-21T13:36:31;15.20;99.90
14008;DHT22;61651;45.508;12.232;2023-11-21T13:39:34;15.20;99.90
14008;DHT22;61651;45.508;12.232;2023-11-21T13:42:36;15.20;99.90
14008;DHT22;61651;45.508;12.232;2023-11-21T13:45:38;15.20;99.90
14008;DHT22;61651;45.508;12.232;2023-11-21T13:48:41;15.20;99.90
14008;DHT22;61651;45.508;12.232;2023-11-21T13:51:45;15.20;99.90
14008;DHT22;61651;45.508;12.232;2023-11-21T13:54:50;15.20;99.90
14008;DHT22;61651;45.508;12.232;2023-11-21T13:57:52;15.20;99.90
14008;DHT22;61651;45.508;12.232;2023-11-21T14:00:54;15.20;99.90
14008;DHT22;61651;45.508;12.232;2023-11-21T14:03:58;15.20;99.90
14008;DHT22;61651;45.508;12.232;2023-11-21T14:07:10;15.20;99.90
14008;DHT22;61651;45.508;12.232;2023-11-21T14:10:25;15.20;99.90
14008;DHT22;61651;45.508;12.232;2023-11-21T14:13:27;15.10;99.90
14008;DHT22;61651;45.508;12.232;2023-11-21T14:16:29;15.10;99.90
14008;DHT22;61651;45.508;12.232;2023-11-21T14:19:31;15.00;99.90
14008;DHT22;61651;45.508;12.232;2023-11-21T14:22:35;15.00;99.90
14008;DHT22;61651;45.508;12.232;2023-11-21T14:25:38;15.00;99.90
14008;DHT22;61651;45.508;12.232;2023-11-21T14:28:42;15.10;99.90
14008;DHT22;61651;45.508;12.232;2023-11-21T14:31:45;15.00;99.90
14008;DHT22;61651;45.508;12.232;2023-11-21T14:34:47;15.00;99.90
14008;DHT22;61651;45.508;12.232;2023-11-21T14:37:50;15.00;99.90
14008;DHT22;61651;45.508;12.232;2023-11-21T14:40:52;15.00;99.90
14008;DHT22;61651;45.508;12.232;2023-11-21T14:43:55;15.00;99.90
14008;DHT22;61651;45.508;12.232;2023-11-21T14:46:57;15.00;99.90
14008;DHT22;61651;45.508;12.232;2023-11-21T14:50:01;15.10;99.90
14008;DHT22;61651;45.508;12.232;2023-11-21T14:53:24;15.00;99.90
14008;DHT22;61651;45.508;12.232;2023-11-21T14:56:43;15.00;99.90
14008;DHT22;61651;45.508;12.232;2023-11-21T14:59:47;15.10;99.90
14008;DHT22;61651;45.508;12.232;2023-11-21T15:02:52;15.10;99.90
14008;DHT22;61651;45.508;12.232;2023-11-21T15:05:54;15.10;99.90
14008;DHT22;61651;45.508;12.232;2023-11-21T15:08:58;15.10;99.90
14008;DHT22;61651;45.508;12.232;2023-11-21T15:12:17;15.10;99.90
14008;DHT22;61651;45.508;12.232;2023-11-21T15:15:21;15.00;99.90
14008;DHT22;61651;45.508;12.232;2023-11-21T15:18:23;15.00;99.90
14008;DHT22;61651;45.508;12.232;2023-11-21T15:21:26;15.00;99.90
14008;DHT22;61651;45.508;12.232;2023-11-21T15:24:29;15.00;99.90
14008;DHT22;61651;45.508;12.232;2023-11-21T15:27:31;14.90;99.90
14008;DHT22;61651;45.508;12.232;2023-11-21T15:30:33;14.90;99.90
14008;DHT22;61651;45.508;12.232;2023-11-21T15:33:35;14.90;99.90
14008;DHT22;61651;45.508;12.232;2023-11-21T15:36:37;14.90;99.90
14008;DHT22;61651;45.508;12.232;2023-11-21T15:39:41;14.90;99.90
14008;DHT22;61651;45.508;12.232;2023-11-21T15:42:43;14.90;99.90
14008;DHT22;61651;45.508;12.232;2023-11-21T15:45:45;14.70;99.90
14008;DHT22;61651;45.508;12.232;2023-11-21T15:48:47;14.70;99.90
14008;DHT22;61651;45.508;12.232;2023-11-21T15:51:54;14.80;99.90
14008;DHT22;61651;45.508;12.232;2023-11-21T15:55:01;14.80;99.90
14008;DHT22;61651;45.508;12.232;2023-11-21T15:58:03;14.70;99.90
14008;DHT22;61651;45.508;12.232;2023-11-21T16:01:07;14.70;99.90
14008;DHT22;61651;45.508;12.232;2023-11-21T16:04:10;14.70;99.90
14008;DHT22;61651;45.508;12.232;2023-11-21T16:07:16;14.70;99.90
14008;DHT22;61651;45.508;12.232;2023-11-21T16:10:20;14.80;99.90
14008;DHT22;61651;45.508;12.232;2023-11-21T16:13:22;14.80;99.90
14008;DHT22;61651;45.508;12.232;2023-11-21T16:16:24;14.80;99.90
14008;DHT22;61651;45.508;12.232;2023-11-21T16:19:26;14.80;99.90
14008;DHT22;61651;45.508;12.232;2023-11-21T16:22:28;14.80;99.90
14008;DHT22;61651;45.508;12.232;2023-11-21T16:25:34;14.80;99.90
14008;DHT22;61651;45.508;12.232;2023-11-21T16:28:37;14.80;99.90
14008;DHT22;61651;45.508;12.232;2023-11-21T16:31:39;14.90;99.90
14008;DHT22;61651;45.508;12.232;2023-11-21T16:34:41;14.90;99.90
14008;DHT22;61651;45.508;12.232;2023-11-21T16:37:43;14.90;99.90
14008;DHT22;61651;45.508;12.232;2023-11-21T16:40:49;15.00;99.90
14008;DHT22;61651;45.508;12.232;2023-11-21T16:43:51;15.00;99.90
14008;DHT22;61651;45.508;12.232;2023-11-21T16:46:53;15.00;99.90
14008;DHT22;61651;45.508;12.232;2023-11-21T16:49:57;15.00;99.90
14008;DHT22;61651;45.508;12.232;2023-11-21T16:52:59;15.00;99.90
14008;DHT22;61651;45.508;12.232;2023-11-21T16:56:03;15.00;99.90
14008;DHT22;61651;45.508;12.232;2023-11-21T16:59:05;14.90;99.90
14008;DHT22;61651;45.508;12.232;2023-11-21T17:02:07;14.90;99.90
14008;DHT22;61651;45.508;12.232;2023-11-21T17:05:11;14.80;99.90
14008;DHT22;61651;45.508;12.232;2023-11-21T17:08:13;14.70;99.90
14008;DHT22;61651;45.508;12.232;2023-11-21T17:11:17;14.70;99.90
14008;DHT22;61651;45.508;12.232;2023-11-21T17:14:20;14.70;99.90
14008;DHT22;61651;45.508;12.232;2023-11-21T17:17:22;14.70;99.90
14008;DHT22;61651;45.508;12.232;2023-11-21T17:20:24;14.60;99.90
14008;DHT22;61651;45.508;12.232;2023-11-21T17:23:27;14.60;99.90
14008;DHT22;61651;45.508;12.232;2023-11-21T17:26:31;14.50;99.90
14008;DHT22;61651;45.508;12.232;2023-11-21T17:29:33;14.50;99.90
14008;DHT22;61651;45.508;12.232;2023-11-21T17:32:35;14.40;99.90
14008;DHT22;61651;45.508;12.232;2023-11-21T17:35:39;14.40;99.90
14008;DHT22;61651;45.508;12.232;2023-11-21T17:38:42;14.40;99.90
14008;DHT22;61651;45.508;12.232;2023-11-21T17:41:45;14.40;99.90
14008;DHT22;61651;45.508;12.232;2023-11-21T17:44:47;14.30;99.90
14008;DHT22;61651;45.508;12.232;2023-11-21T17:47:49;14.30;99.90
14008;DHT22;61651;45.508;12.232;2023-11-21T17:50:51;14.20;99.90
14008;DHT22;61651;45.508;12.232;2023-11-21T17:53:53;14.20;99.90
14008;DHT22;61651;45.508;12.232;2023-11-21T17:57:03;14.10;99.90
14008;DHT22;61651;45.508;12.232;2023-11-21T18:00:06;14.10;99.90
14008;DHT22;61651;45.508;12.232;2023-11-21T18:03:09;14.10;99.90
14008;DHT22;61651;45.508;12.232;2023-11-21T18:06:11;14.10;99.90
14008;DHT22;61651;45.508;12.232;2023-11-21T18:09:14;14.10;99.90
14008;DHT22;61651;45.508;12.232;2023-11-21T18:12:17;14.10;99.90
14008;DHT22;61651;45.508;12.232;2023-11-21T18:15:21;14.10;99.90
14008;DHT22;61651;45.508;12.232;2023-11-21T18:18:23;14.10;99.90
14008;DHT22;61651;45.508;12.232;2023-11-21T18:21:25;14.00;99.90
14008;DHT22;61651;45.508;12.232;2023-11-21T18:24:27;14.00;99.90
14008;DHT22;61651;45.508;12.232;2023-11-21T18:27:31;14.00;99.90
14008;DHT22;61651;45.508;12.232;2023-11-21T18:30:33;14.00;99.90
14008;DHT22;61651;45.508;12.232;2023-11-21T18:33:35;14.00;99.90
14008;DHT22;61651;45.508;12.232;2023-11-21T18:36:39;14.00;99.90
14008;DHT22;61651;45.508;12.232;2023-11-21T18:39:44;14.00;99.90
14008;DHT22;61651;45.508;12.232;2023-11-21T18:42:47;14.00;99.90
14008;DHT22;61651;45.508;12.232;2023-11-21T18:45:50;14.00;99.90
14008;DHT22;61651;45.508;12.232;2023-11-21T18:48:52;14.10;99.90
14008;DHT22;61651;45.508;12.232;2023-11-21T18:51:54;14.10;99.90
14008;DHT22;61651;45.508;12.232;2023-11-21T18:54:56;14.00;99.90
14008;DHT22;61651;45.508;12.232;2023-11-21T18:58:00;14.00;99.90
14008;DHT22;61651;45.508;12.232;2023-11-21T19:01:03;13.90;99.90
14008;DHT22;61651;45.508;12.232;2023-11-21T19:04:05;13.90;99.90